Map

Track Data

SID SEASON NUMBER BASIN SUBBASIN NAME ISO_TIME NATURE LAT LON WMO_WIND WMO_PRES WMO_AGENCY TRACK_TYPE DIST2LAND LANDFALL IFLAG USA_AGENCY USA_ATCF_ID USA_LAT USA_LON USA_RECORD USA_STATUS USA_WIND USA_PRES USA_SSHS USA_R34_NE USA_R34_SE USA_R34_SW USA_R34_NW USA_R50_NE USA_R50_SE USA_R50_SW USA_R50_NW USA_R64_NE USA_R64_SE USA_R64_SW USA_R64_NW USA_POCI USA_ROCI USA_RMW USA_EYE TOKYO_LAT TOKYO_LON TOKYO_GRADE TOKYO_WIND TOKYO_PRES TOKYO_R50_DIR TOKYO_R50_LONG TOKYO_R50_SHORT TOKYO_R30_DIR TOKYO_R30_LONG TOKYO_R30_SHORT TOKYO_LAND CMA_LAT CMA_LON CMA_CAT CMA_WIND CMA_PRES HKO_LAT HKO_LON HKO_CAT HKO_WIND HKO_PRES NEWDELHI_LAT NEWDELHI_LON NEWDELHI_GRADE NEWDELHI_WIND NEWDELHI_PRES NEWDELHI_CI NEWDELHI_DP NEWDELHI_POCI REUNION_LAT REUNION_LON REUNION_TYPE REUNION_WIND REUNION_PRES REUNION_TNUM REUNION_CI REUNION_RMW REUNION_R34_NE REUNION_R34_SE REUNION_R34_SW REUNION_R34_NW REUNION_R50_NE REUNION_R50_SE REUNION_R50_SW REUNION_R50_NW REUNION_R64_NE REUNION_R64_SE REUNION_R64_SW REUNION_R64_NW BOM_LAT BOM_LON BOM_TYPE BOM_WIND BOM_PRES BOM_TNUM BOM_CI BOM_RMW BOM_R34_NE BOM_R34_SE BOM_R34_SW BOM_R34_NW BOM_R50_NE BOM_R50_SE BOM_R50_SW BOM_R50_NW BOM_R64_NE BOM_R64_SE BOM_R64_SW BOM_R64_NW BOM_ROCI BOM_POCI BOM_EYE BOM_POS_METHOD BOM_PRES_METHOD NADI_LAT NADI_LON NADI_CAT NADI_WIND NADI_PRES WELLINGTON_LAT WELLINGTON_LON WELLINGTON_WIND WELLINGTON_PRES DS824_LAT DS824_LON DS824_STAGE DS824_WIND DS824_PRES TD9636_LAT TD9636_LON TD9636_STAGE TD9636_WIND TD9636_PRES TD9635_LAT TD9635_LON TD9635_WIND TD9635_PRES TD9635_ROCI NEUMANN_LAT NEUMANN_LON NEUMANN_CLASS NEUMANN_WIND NEUMANN_PRES MLC_LAT MLC_LON MLC_CLASS MLC_WIND MLC_PRES USA_GUST BOM_GUST BOM_GUST_PER REUNION_GUST REUNION_GUST_PER USA_SEAHGT USA_SEARAD_NE USA_SEARAD_SE USA_SEARAD_SW USA_SEARAD_NW STORM_SPEED STORM_DIR
1952331N07092 1952 94 NI BB NOT_NAMED 1952-11-25 18:00:00 TS 6.80000 92.2000 main 358 358 O________O____ jtwc_io IO141952 6.80000 92.2000 -1 6.80000 92.2000 TC 2 295
1952331N07092 1952 94 NI BB NOT_NAMED 1952-11-25 21:00:00 TS 6.83749 92.1200 main 368 368 P________P____ IO141952 6.83749 92.1200 -1 6.83749 92.1200 TC 2 297
1952331N07092 1952 94 NI BB NOT_NAMED 1952-11-26 00:00:00 TS 6.90000 92.0000 main 382 382 O________O____ jtwc_io IO141952 6.90000 92.0000 -1 6.90000 92.0000 TC 25 3 298
1952331N07092 1952 94 NI BB NOT_NAMED 1952-11-26 03:00:00 TS 7.00001 91.8134 main 407 407 P________PO___ IO141952 7.00001 91.8150 -1 7.00001 91.8150 TC 25 7.00000 91.8000 1 4 296
1952331N07092 1952 94 NI BB NOT_NAMED 1952-11-26 06:00:00 TS 7.09565 91.5975 main 432 432 O________OP___ jtwc_io IO141952 7.10000 91.6000 -1 7.10000 91.6000 TC 25 7.07826 91.5876 1 4 290
1952331N07092 1952 94 NI BB NOT_NAMED 1952-11-26 09:00:00 TS 7.15140 91.3946 main 456 456 P________PP___ IO141952 7.14999 91.4000 -1 7.14999 91.4000 TC 25 7.15517 91.3801 1 4 286
1952331N07092 1952 94 NI BB NOT_NAMED 1952-11-26 12:00:00 TS 7.20983 91.1942 main 477 477 O________OP___ jtwc_io IO141952 7.20000 91.2000 -1 7.20000 91.2000 TC 25 7.22950 91.1826 1 4 291
1952331N07092 1952 94 NI BB NOT_NAMED 1952-11-26 15:00:00 TS 7.29999 91.0000 main 502 502 P________PO___ IO141952 7.29999 91.0000 -1 7.29999 91.0000 TC 30 7.30000 91.0000 1 4 295
1952331N07092 1952 94 NI BB NOT_NAMED 1952-11-26 18:00:00 TS 7.38891 90.8108 main 526 526 O________OP___ jtwc_io IO141952 7.40000 90.8000 -1 7.40000 90.8000 TC 35 7.36672 90.8324 1 4 291
1952331N07092 1952 94 NI BB NOT_NAMED 1952-11-26 21:00:00 TS 7.44490 90.6249 main 547 547 P________PP___ IO141952 7.44998 90.6075 -1 7.44998 90.6075 TC 50 7.43475 90.6598 1 4 286
1952331N07092 1952 94 NI BB NOT_NAMED 1952-11-27 00:00:00 TS 7.50347 90.4191 main 571 571 O________OP___ jtwc_io IO141952 7.50000 90.4000 -1 7.50000 90.4000 TC 65 7.51041 90.4573 1 5 289
1952331N07092 1952 94 NI BB NOT_NAMED 1952-11-27 03:00:00 TS 7.58995 90.1916 main 596 596 P________PO___ IO141952 7.58493 90.1875 -1 7.58493 90.1875 TC 65 7.60000 90.2000 4 6 291
1952331N07092 1952 94 NI BB NOT_NAMED 1952-11-27 06:00:00 TS 7.70629 89.8845 main 631 631 O________OP___ jtwc_io IO141952 7.70000 89.9000 -1 7.70000 89.9000 TC 65 7.71887 89.8535 4 8 290
1952331N07092 1952 94 NI BB NOT_NAMED 1952-11-27 09:00:00 TS 7.85009 89.4659 main 680 680 P________PP___ IO141952 7.85006 89.4725 -1 7.85006 89.4725 TC 65 7.85017 89.4526 4 9 288
1952331N07092 1952 94 NI BB NOT_NAMED 1952-11-27 12:00:00 TS 7.99379 89.0085 main 736 736 O________OP___ jtwc_io IO141952 8.00000 89.0000 -1 8.00000 89.0000 TC 65 7.98136 89.0254 4 9 287
1952331N07092 1952 94 NI BB NOT_NAMED 1952-11-27 15:00:00 TS 8.10997 88.5900 main 749 707 P________PO___ IO141952 8.11496 88.5850 -1 8.11496 88.5850 TC 65 8.10000 88.6000 4 8 284
1952331N07092 1952 94 NI BB NOT_NAMED 1952-11-27 18:00:00 TS 8.19371 88.2045 main 707 675 O________OP___ jtwc_io IO141952 8.20000 88.2000 -1 8.20000 88.2000 TC 65 8.18114 88.2136 4 8 281
1952331N07092 1952 94 NI BB NOT_NAMED 1952-11-27 21:00:00 TS 8.24990 87.8449 main 664 633 P________PP___ IO141952 8.24993 87.8499 -1 8.24993 87.8499 TC 65 8.24986 87.8348 4 7 279
1952331N07092 1952 94 NI BB NOT_NAMED 1952-11-28 00:00:00 TS 8.30622 87.4879 main 633 590 O________OP___ jtwc_io IO141952 8.30000 87.5000 -1 8.30000 87.5000 TC 65 8.31865 87.4636 4 8 281
1952331N07092 1952 94 NI BB NOT_NAMED 1952-11-28 03:00:00 TS 8.39000 87.1000 main 590 549 P________PO___ IO141952 8.38500 87.1000 -1 8.38500 87.1000 TC 65 8.40000 87.1000 4 8 284
1952331N07092 1952 94 NI BB NOT_NAMED 1952-11-28 06:00:00 TS 8.50351 86.7129 main 549 519 O________OP___ jtwc_io IO141952 8.50000 86.7000 -1 8.50000 86.7000 TC 65 8.51052 86.7388 4 8 289
1952331N07092 1952 94 NI BB NOT_NAMED 1952-11-28 09:00:00 TS 8.64493 86.3517 main 519 481 P________PP___ IO141952 8.64997 86.3350 -1 8.64997 86.3350 TC 65 8.63487 86.3850 4 8 292
1952331N07092 1952 94 NI BB NOT_NAMED 1952-11-28 12:00:00 TS 8.78893 86.0129 main 481 453 O________OP___ jtwc_io IO141952 8.80000 86.0000 -1 8.80000 86.0000 TC 65 8.76678 86.0387 4 7 292
1952331N07092 1952 94 NI BB NOT_NAMED 1952-11-28 15:00:00 TS 8.89996 85.7000 main 453 426 P________PO___ IO141952 8.89994 85.6999 -1 8.89994 85.6999 TC 65 8.90000 85.7000 4 6 290
1952331N07092 1952 94 NI BB NOT_NAMED 1952-11-28 18:00:00 TS 9.00553 85.3973 main 426 400 O________OP___ jtwc_io IO141952 9.00000 85.4000 -1 9.00000 85.4000 TC 65 9.01659 85.3920 4 7 291
1952331N07092 1952 94 NI BB NOT_NAMED 1952-11-28 21:00:00 TS 9.13985 85.0674 main 400 370 P________PP___ IO141952 9.14249 85.0575 -1 9.14249 85.0575 TC 65 9.13457 85.0871 4 7 293
1952331N07092 1952 94 NI BB NOT_NAMED 1952-11-29 00:00:00 TS 9.28676 84.7213 main 370 345 O________OP___ jtwc_io IO141952 9.30000 84.7000 -1 9.30000 84.7000 TC 65 9.26028 84.7638 4 7 293
1952331N07092 1952 94 NI BB NOT_NAMED 1952-11-29 03:00:00 TS 9.43326 84.3816 main 345 315 P________PO___ IO141952 9.44989 84.3724 -1 9.44989 84.3724 TC 65 9.40000 84.4000 4 8 293
1952331N07092 1952 94 NI BB NOT_NAMED 1952-11-29 06:00:00 TS 9.58958 83.9921 main 315 272 O________OP___ jtwc_io IO141952 9.60000 84.0000 -1 9.60000 84.0000 TC 65 9.56873 83.9763 4 9 290
1952331N07092 1952 94 NI BB NOT_NAMED 1952-11-29 09:00:00 TS 9.74999 83.5183 main 272 239 P________PP___ IO141952 9.75002 83.5225 -1 9.75002 83.5225 TC 65 9.74994 83.5101 4 10 288
1952331N07092 1952 94 NI BB NOT_NAMED 1952-11-29 12:00:00 TS 9.91039 83.0046 main 239 206 O________OP___ jtwc_io IO141952 9.90000 83.0000 -1 9.90000 83.0000 TC 65 9.93116 83.0138 4 10 288
1952331N07092 1952 94 NI BB NOT_NAMED 1952-11-29 15:00:00 TS 10.0666 82.5050 main 206 165 P________PO___ IO141952 10.0499 82.5074 -1 10.0499 82.5074 TC 65 10.1000 82.5000 4 10 287
1952331N07092 1952 94 NI BB NOT_NAMED 1952-11-29 18:00:00 TS 10.2189 81.9918 main 165 135 O________OP___ jtwc_io IO141952 10.2000 82.0000 -1 10.2000 82.0000 TC 65 10.2472 81.9795 4 11 286
1952331N07092 1952 94 NI BB NOT_NAMED 1952-11-29 21:00:00 TS 10.3611 81.4580 main 145 109 P________PP___ IO141952 10.3502 81.4601 -1 10.3502 81.4601 TC 65 10.3756 81.4552 4 11 285
1952331N07092 1952 94 NI BB NOT_NAMED 1952-11-30 00:00:00 TS 10.4956 80.9142 main 109 54 O________OP___ jtwc_io IO141952 10.5000 80.9000 -1 10.5000 80.9000 TC 65 10.4912 80.9283 4 11 283
1952331N07092 1952 94 NI BB NOT_NAMED 1952-11-30 03:00:00 NR 10.6000 80.4000 main 54 __________O___ IO141952 -1 TC 10.6000 80.4000 4 10 282

About IBTrACS Database

This database is a web-friendly format of International Best Track Archive for Climate Stewardship (IBTrACS), a global best track data archive curated by NOAA dating back to 1842.

Updated: 2021-12-03